createdAt,value
2018-04-09T00:00:04.646Z,14.37
2018-04-09T00:02:32.936Z,15.93
2018-04-09T00:05:01.219Z,17.50
2018-04-09T00:07:29.487Z,16.50
2018-04-09T00:09:58.518Z,14.00
2018-04-09T00:12:27.275Z,12.87
2018-04-09T00:14:55.568Z,17.27
2018-04-09T00:17:23.845Z,12.30
2018-04-09T00:19:53.188Z,16.53
2018-04-09T00:22:22.221Z,13.10
2018-04-09T00:24:50.516Z,17.77
2018-04-09T00:27:19.311Z,17.13
2018-04-09T00:29:47.854Z,13.50
2018-04-09T00:32:16.137Z,14.87
2018-04-09T00:34:44.448Z,12.03
2018-04-09T00:37:12.697Z,14.00
2018-04-09T00:39:40.975Z,16.63
2018-04-09T00:42:09.236Z,24.40
2018-04-09T00:44:37.498Z,15.80
2018-04-09T00:47:06.524Z,15.47
2018-04-09T00:49:34.808Z,12.70
2018-04-09T00:52:03.081Z,20.23
2018-04-09T00:54:31.356Z,24.93
2018-04-09T00:56:59.635Z,12.43
2018-04-09T00:59:27.954Z,21.03
2018-04-09T01:01:56.217Z,15.57
2018-04-09T01:04:25.257Z,13.33
2018-04-09T01:06:53.512Z,18.43
2018-04-09T01:09:22.621Z,17.40
2018-04-09T01:11:52.025Z,16.77
2018-04-09T01:14:21.041Z,10.20
2018-04-09T01:16:49.601Z,15.13
2018-04-09T01:19:17.869Z,15.47
2018-04-09T01:21:46.924Z,16.50
2018-04-09T01:24:15.179Z,21.73
2018-04-09T01:26:43.465Z,16.00
2018-04-09T01:29:11.718Z,14.13
2018-04-09T01:31:39.981Z,26.73
2018-04-09T01:34:08.249Z,18.47
2018-04-09T01:36:37.284Z,16.67
2018-04-09T01:39:05.559Z,13.60
2018-04-09T01:41:33.817Z,13.47
2018-04-09T01:44:02.085Z,14.60
2018-04-09T01:46:31.284Z,20.63
2018-04-09T01:48:59.550Z,15.13
2018-04-09T01:51:27.898Z,13.23
2018-04-09T01:53:56.166Z,15.73
2018-04-09T01:56:24.442Z,19.17
2018-04-09T01:58:52.697Z,12.60
2018-04-09T02:01:20.969Z,16.73
2018-04-09T02:03:49.242Z,12.57
2018-04-09T02:06:17.506Z,16.10
2018-04-09T02:08:45.785Z,19.83
2018-04-09T02:11:14.082Z,13.87
2018-04-09T02:13:42.330Z,13.57
2018-04-09T02:16:10.594Z,13.60
2018-04-09T02:18:38.854Z,13.63
2018-04-09T02:21:07.890Z,18.90
2018-04-09T02:23:36.178Z,12.77
2018-04-09T02:26:04.444Z,16.63
2018-04-09T02:28:32.717Z,15.53
2018-04-09T02:31:00.974Z,10.47
2018-04-09T02:33:29.264Z,13.70
2018-04-09T02:35:57.663Z,17.33
2018-04-09T02:38:25.943Z,15.70
2018-04-09T02:40:54.212Z,12.40
2018-04-09T02:43:22.473Z,13.53
2018-04-09T02:45:50.744Z,16.90
2018-04-09T02:48:19.007Z,13.47
2018-04-09T02:50:47.278Z,14.27
2018-04-09T02:53:16.346Z,37.87
2018-04-09T02:55:44.599Z,18.30
2018-04-09T02:58:12.869Z,13.43
2018-04-09T03:00:41.151Z,14.67
2018-04-09T03:03:09.460Z,15.63
2018-04-09T03:05:38.515Z,13.87
2018-04-09T03:08:06.803Z,25.47
2018-04-09T03:10:35.078Z,21.63
2018-04-09T03:13:03.354Z,13.73
2018-04-09T03:15:31.606Z,21.40
2018-04-09T03:17:59.871Z,13.73
2018-04-09T03:20:28.900Z,10.47
2018-04-09T03:22:57.154Z,15.13
2018-04-09T03:25:25.410Z,12.93
2018-04-09T03:27:53.713Z,19.03
2018-04-09T03:30:21.980Z,21.47
2018-04-09T03:32:50.311Z,17.00
2018-04-09T03:35:19.346Z,13.03
2018-04-09T03:37:47.618Z,11.87
2018-04-09T03:40:15.909Z,12.97
2018-04-09T03:42:44.164Z,12.50
2018-04-09T03:45:12.434Z,15.10
2018-04-09T03:47:40.692Z,15.43
2018-04-09T03:50:09.712Z,16.03
2018-04-09T03:52:38.009Z,13.90
2018-04-09T03:55:06.270Z,19.87
2018-04-09T03:57:34.527Z,14.83
2018-04-09T04:00:02.787Z,15.60
2018-04-09T04:02:31.834Z,19.47
2018-04-09T04:05:00.188Z,11.03
2018-04-09T04:07:28.453Z,10.13
2018-04-09T04:09:56.756Z,17.80
2018-04-09T04:12:25.012Z,15.33
2018-04-09T04:14:53.269Z,17.40
2018-04-09T04:17:34.214Z,13.97
2018-04-09T04:20:14.642Z,14.90
2018-04-09T04:22:42.930Z,14.73
2018-04-09T04:25:11.209Z,15.33
2018-04-09T04:27:39.461Z,12.10
2018-04-09T04:30:07.726Z,21.97
2018-04-09T04:32:35.988Z,19.87
2018-04-09T04:35:04.242Z,12.50
2018-04-09T04:37:32.499Z,13.07
2018-04-09T04:40:00.864Z,15.30
2018-04-09T04:42:29.131Z,13.37
2018-04-09T04:44:57.401Z,19.13
2018-04-09T04:47:26.432Z,19.23
2018-04-09T04:49:54.699Z,16.13
2018-04-09T04:52:22.944Z,12.13
2018-04-09T04:54:51.224Z,15.80
2018-04-09T04:57:19.490Z,15.10
2018-04-09T04:59:47.762Z,14.00
2018-04-09T05:02:16.048Z,10.90
2018-04-09T05:04:44.539Z,20.83
2018-04-09T05:07:12.862Z,17.83
2018-04-09T05:09:41.130Z,10.70
2018-04-09T05:12:09.407Z,12.80
2018-04-09T05:14:37.667Z,15.93
2018-04-09T05:17:05.919Z,15.57
2018-04-09T05:19:34.194Z,20.47
2018-04-09T05:22:02.563Z,10.00
2018-04-09T05:24:30.839Z,16.53
2018-04-09T05:26:59.087Z,8.87
2018-04-09T05:29:28.107Z,16.10
2018-04-09T05:31:56.411Z,18.83
2018-04-09T05:34:24.687Z,8.77
2018-04-09T05:36:53.056Z,12.57
2018-04-09T05:39:21.313Z,16.33
2018-04-09T05:41:49.785Z,10.93
2018-04-09T05:44:18.050Z,10.90
2018-04-09T05:46:46.338Z,21.63
2018-04-09T05:49:14.637Z,17.03
2018-04-09T05:51:42.918Z,21.50
2018-04-09T05:54:11.193Z,13.23
2018-04-09T05:56:39.451Z,18.80
2018-04-09T05:59:07.714Z,16.57
2018-04-09T06:01:36.759Z,15.73
2018-04-09T06:04:05.103Z,11.33
2018-04-09T06:06:33.388Z,13.40
2018-04-09T06:09:01.663Z,15.50
2018-04-09T06:11:29.962Z,13.63
2018-04-09T06:13:58.232Z,8.83
2018-04-09T06:16:26.503Z,11.70
2018-04-09T06:18:54.769Z,14.20
2018-04-09T06:21:23.112Z,13.37
2018-04-09T06:23:51.383Z,14.33
2018-04-09T06:26:19.657Z,13.00
2018-04-09T06:28:47.946Z,17.30
2018-04-09T06:31:16.358Z,11.13
2018-04-09T06:33:44.979Z,10.00
2018-04-09T06:36:14.054Z,13.73
2018-04-09T06:38:42.325Z,14.50
2018-04-09T06:41:10.595Z,16.40
2018-04-09T06:43:38.944Z,11.30
2018-04-09T06:46:07.230Z,17.97
2018-04-09T06:48:35.539Z,18.77
2018-04-09T06:51:03.882Z,19.37
2018-04-09T06:53:32.152Z,18.10
2018-04-09T06:56:00.415Z,20.10
2018-04-09T06:58:28.756Z,17.00
2018-04-09T07:00:57.020Z,14.10
2018-04-09T07:03:25.304Z,20.57
2018-04-09T07:05:53.613Z,14.70
2018-04-09T07:08:21.896Z,14.27
2018-04-09T07:10:50.170Z,14.47
2018-04-09T07:13:18.590Z,10.87
2018-04-09T07:15:46.914Z,12.57
2018-04-09T07:18:16.081Z,11.80
2018-04-09T07:20:44.398Z,19.67
2018-04-09T07:23:12.701Z,18.13
2018-04-09T07:25:40.953Z,17.87
2018-04-09T07:28:09.244Z,15.50
2018-04-09T07:30:37.534Z,12.53
2018-04-09T07:33:05.847Z,27.07
2018-04-09T07:35:34.114Z,23.20
2018-04-09T07:38:02.518Z,20.83
2018-04-09T07:40:31.576Z,13.23
2018-04-09T07:42:59.859Z,19.93
2018-04-09T07:45:28.125Z,14.10
2018-04-09T07:47:56.424Z,13.40
2018-04-09T07:50:24.712Z,10.30
2018-04-09T07:52:53.017Z,9.60
2018-04-09T07:55:21.289Z,12.17
2018-04-09T07:57:49.562Z,10.53
2018-04-09T08:00:18.601Z,18.83
2018-04-09T08:02:46.906Z,16.97
2018-04-09T08:05:15.954Z,17.70
2018-04-09T08:07:44.261Z,13.50
2018-04-09T08:10:12.527Z,13.40
2018-04-09T08:12:40.847Z,17.47
2018-04-09T08:15:09.884Z,11.93
2018-04-09T08:17:39.246Z,15.80
2018-04-09T08:20:08.406Z,11.13
2018-04-09T08:22:36.703Z,12.40
2018-04-09T08:25:05.264Z,9.33
2018-04-09T08:27:33.538Z,8.70
2018-04-09T08:30:01.993Z,12.20
2018-04-09T08:32:30.323Z,18.93
2018-04-09T08:34:59.362Z,12.83
2018-04-09T08:37:27.683Z,11.17
2018-04-09T08:39:55.958Z,11.97
2018-04-09T08:42:24.255Z,19.43
2018-04-09T08:44:53.306Z,11.37
2018-04-09T08:47:21.581Z,18.60
2018-04-09T08:49:49.892Z,10.73
2018-04-09T08:52:18.928Z,15.33
2018-04-09T08:54:47.258Z,11.63
2018-04-09T08:57:16.369Z,13.60
2018-04-09T08:59:45.415Z,9.90
2018-04-09T09:02:13.722Z,9.20
2018-04-09T09:04:42.873Z,11.90
2018-04-09T09:07:11.154Z,10.73
2018-04-09T09:09:39.447Z,12.07
2018-04-09T09:12:07.796Z,13.40
2018-04-09T09:14:36.096Z,15.13
2018-04-09T09:17:04.401Z,18.60
2018-04-09T09:19:34.190Z,14.43
2018-04-09T09:22:02.479Z,13.73
2018-04-09T09:24:30.769Z,13.53
2018-04-09T09:26:59.880Z,16.40
2018-04-09T09:29:28.954Z,18.17
2018-04-09T09:31:57.212Z,16.90
2018-04-09T09:34:25.565Z,18.70
2018-04-09T09:36:53.946Z,12.63
2018-04-09T09:39:22.295Z,17.10
2018-04-09T09:41:50.578Z,17.00
2018-04-09T09:44:18.991Z,13.63
2018-04-09T09:46:47.288Z,19.83
2018-04-09T09:49:15.637Z,13.90
2018-04-09T09:51:44.023Z,13.43
2018-04-09T09:54:12.342Z,14.70
2018-04-09T09:56:41.425Z,13.00
2018-04-09T09:59:09.736Z,14.27
2018-04-09T10:01:43.480Z,19.57
2018-04-09T10:04:16.565Z,14.77
2018-04-09T10:06:45.094Z,14.00
2018-04-09T10:09:14.178Z,19.40
2018-04-09T10:11:43.274Z,12.77
2018-04-09T10:14:12.328Z,13.00
2018-04-09T10:16:41.753Z,11.60
2018-04-09T10:19:10.077Z,13.90
2018-04-09T10:21:38.388Z,13.60
2018-04-09T10:24:06.647Z,10.70
2018-04-09T10:26:35.416Z,12.47
2018-04-09T10:29:03.704Z,14.00
2018-04-09T10:31:31.977Z,13.57
2018-04-09T10:34:00.293Z,15.83
2018-04-09T10:36:28.625Z,15.20
2018-04-09T10:38:57.763Z,12.70
2018-04-09T10:41:26.107Z,19.40
2018-04-09T10:43:55.238Z,16.03
2018-04-09T10:46:23.566Z,15.20
2018-04-09T10:48:51.844Z,16.83
2018-04-09T10:51:20.137Z,13.50
2018-04-09T10:53:48.478Z,12.13
2018-04-09T10:56:17.561Z,19.13
2018-04-09T10:58:46.011Z,13.50
2018-04-09T11:01:14.473Z,14.50
2018-04-09T11:03:43.454Z,20.27
2018-04-09T11:06:11.738Z,18.60
2018-04-09T11:08:40.027Z,15.37
2018-04-09T11:11:08.311Z,15.33
2018-04-09T11:13:37.722Z,17.30
2018-04-09T11:16:06.057Z,17.37
2018-04-09T11:18:34.359Z,16.97
2018-04-09T11:21:02.644Z,13.47
2018-04-09T11:23:30.942Z,15.60
2018-04-09T11:25:59.385Z,15.90
2018-04-09T11:28:28.599Z,17.00
2018-04-09T11:30:57.991Z,19.70
2018-04-09T11:33:26.267Z,14.43
2018-04-09T11:35:54.546Z,19.50
2018-04-09T11:38:22.854Z,16.80
2018-04-09T11:40:51.193Z,19.37
2018-04-09T11:43:20.637Z,24.13
2018-04-09T11:45:50.419Z,17.63
2018-04-09T11:48:18.718Z,20.17
2018-04-09T11:50:47.024Z,18.40
2018-04-09T11:53:15.303Z,22.00
2018-04-09T11:55:45.136Z,17.93
2018-04-09T11:58:13.447Z,20.50
2018-04-09T12:00:41.720Z,15.53
2018-04-09T12:03:09.997Z,19.20
2018-04-09T12:05:38.283Z,23.80
2018-04-09T12:08:06.550Z,22.93
2018-04-09T12:10:35.036Z,18.07
2018-04-09T12:13:03.358Z,18.80
2018-04-09T12:15:32.409Z,23.40
2018-04-09T12:18:00.692Z,15.67
2018-04-09T12:20:29.043Z,29.07
2018-04-09T12:22:57.438Z,21.80
2018-04-09T12:25:26.077Z,20.83
2018-04-09T12:27:54.390Z,22.80
2018-04-09T12:30:23.700Z,21.50
2018-04-09T12:32:51.976Z,23.47
2018-04-09T12:35:20.273Z,23.73
2018-04-09T12:37:48.557Z,17.70
2018-04-09T12:40:16.857Z,24.10
2018-04-09T12:42:45.133Z,25.80
2018-04-09T12:45:14.217Z,20.90
2018-04-09T12:47:44.289Z,21.83
2018-04-09T12:50:12.571Z,17.97
2018-04-09T12:52:40.840Z,16.77
2018-04-09T12:55:09.092Z,23.27
2018-04-09T12:57:37.370Z,14.83
2018-04-09T13:00:05.652Z,23.03
2018-04-09T13:02:33.921Z,20.23
2018-04-09T13:05:02.205Z,19.90
2018-04-09T13:07:30.496Z,21.53
2018-04-09T13:09:58.773Z,15.73
2018-04-09T13:12:27.186Z,20.40
2018-04-09T13:14:56.550Z,25.30
2018-04-09T13:17:24.844Z,21.23
2018-04-09T13:19:53.121Z,24.90
2018-04-09T13:22:21.400Z,19.93
2018-04-09T13:24:49.671Z,18.90
2018-04-09T13:27:17.941Z,16.20
2018-04-09T13:29:46.257Z,21.60
2018-04-09T13:32:15.295Z,20.40
2018-04-09T13:34:43.579Z,20.70
2018-04-09T13:37:11.872Z,18.40
2018-04-09T13:39:40.177Z,20.67
2018-04-09T13:42:09.242Z,21.40
2018-04-09T13:44:37.836Z,22.30
2018-04-09T13:47:06.865Z,23.00
2018-04-09T13:49:38.872Z,18.17
2018-04-09T13:52:07.161Z,24.10
2018-04-09T13:54:36.222Z,18.70
2018-04-09T13:57:05.645Z,23.10
2018-04-09T13:59:34.022Z,15.70
2018-04-09T14:02:02.330Z,19.80
2018-04-09T14:04:31.955Z,18.67
2018-04-09T14:07:00.993Z,22.23
2018-04-09T14:09:29.311Z,20.10
2018-04-09T14:11:58.067Z,15.07
2018-04-09T14:14:26.353Z,20.17
2018-04-09T14:16:54.697Z,19.47
2018-04-09T14:19:23.108Z,16.30
2018-04-09T14:21:51.400Z,18.90
2018-04-09T14:24:19.749Z,24.00
2018-04-09T14:26:48.028Z,15.33
2018-04-09T14:29:16.290Z,17.60
2018-04-09T14:31:44.687Z,13.17
2018-04-09T14:34:12.972Z,11.30
2018-04-09T14:36:41.336Z,11.30
2018-04-09T14:39:09.715Z,20.20
2018-04-09T14:41:37.990Z,11.50
2018-04-09T14:44:06.250Z,19.83
2018-04-09T14:46:34.675Z,23.67
2018-04-09T14:49:04.567Z,14.53
2018-04-09T14:51:32.879Z,20.57
2018-04-09T14:54:01.909Z,17.60
2018-04-09T14:56:30.207Z,16.37
2018-04-09T14:58:58.495Z,16.37
2018-04-09T15:01:26.794Z,23.23
2018-04-09T15:03:55.104Z,13.73
2018-04-09T15:06:23.377Z,16.27
2018-04-09T15:08:51.671Z,17.40
2018-04-09T15:11:19.959Z,23.73
2018-04-09T15:13:48.249Z,16.03
2018-04-09T15:16:16.522Z,14.20
2018-04-09T15:18:44.798Z,15.20
2018-04-09T15:21:13.058Z,11.00
2018-04-09T15:23:41.577Z,11.90
2018-04-09T15:26:10.638Z,18.03
2018-04-09T15:28:38.936Z,18.03
2018-04-09T15:31:07.987Z,20.37
2018-04-09T15:33:36.281Z,14.93
2018-04-09T15:36:04.564Z,16.07
2018-04-09T15:38:32.835Z,13.53
2018-04-09T15:41:01.181Z,11.47
2018-04-09T15:43:29.459Z,12.53
2018-04-09T15:45:57.773Z,24.87
2018-04-09T15:48:26.052Z,16.60
2018-04-09T15:50:54.324Z,22.60
2018-04-09T15:53:22.624Z,18.80
2018-04-09T15:55:50.940Z,16.83
2018-04-09T15:58:19.997Z,15.87
2018-04-09T16:00:49.019Z,16.07
2018-04-09T16:03:18.074Z,14.10
2018-04-09T16:05:46.414Z,21.03
2018-04-09T16:08:14.674Z,15.63
2018-04-09T16:10:42.944Z,16.07
2018-04-09T16:13:11.988Z,15.87
2018-04-09T16:15:40.256Z,18.03
2018-04-09T16:18:08.560Z,19.50
2018-04-09T16:20:36.886Z,19.00
2018-04-09T16:23:05.211Z,17.87
2018-04-09T16:25:33.578Z,22.40
2018-04-09T16:28:01.870Z,18.37
2018-04-09T16:30:30.218Z,17.63
2018-04-09T16:32:58.503Z,19.03
2018-04-09T16:35:26.875Z,16.80
2018-04-09T16:37:55.195Z,12.40
2018-04-09T16:40:23.478Z,16.97
2018-04-09T16:42:52.530Z,24.20
2018-04-09T16:45:20.921Z,12.07
2018-04-09T16:47:49.205Z,15.07
2018-04-09T16:50:18.970Z,15.87
2018-04-09T16:52:47.275Z,17.27
2018-04-09T16:55:15.552Z,12.87
2018-04-09T16:57:43.823Z,16.53
2018-04-09T17:00:12.123Z,13.63
2018-04-09T17:02:40.399Z,15.50
2018-04-09T17:05:08.689Z,12.57
2018-04-09T17:07:37.822Z,14.43
2018-04-09T17:10:06.156Z,23.03
2018-04-09T17:12:35.213Z,18.17
2018-04-09T17:15:04.350Z,15.03
2018-04-09T17:17:33.410Z,12.67
2018-04-09T17:20:01.702Z,13.97
2018-04-09T17:22:30.023Z,13.60
2018-04-09T17:24:59.044Z,20.23
2018-04-09T17:27:27.337Z,15.63
2018-04-09T17:29:55.609Z,21.53
2018-04-09T17:32:23.903Z,13.63
2018-04-09T17:34:52.208Z,15.93
2018-04-09T17:37:20.507Z,15.77
2018-04-09T17:39:48.769Z,15.70
2018-04-09T17:42:17.806Z,13.37
2018-04-09T17:44:46.097Z,15.43
2018-04-09T17:47:14.338Z,13.23
2018-04-09T17:49:42.616Z,14.97
2018-04-09T17:52:10.896Z,12.77
2018-04-09T17:54:39.158Z,13.37
2018-04-09T17:57:07.422Z,14.03
2018-04-09T17:59:35.698Z,19.03
2018-04-09T18:02:04.729Z,13.00
2018-04-09T18:04:32.990Z,12.70
2018-04-09T18:07:01.275Z,17.00
2018-04-09T18:09:29.938Z,16.17
2018-04-09T18:11:58.228Z,16.47
2018-04-09T18:14:26.493Z,19.70
2018-04-09T18:16:54.795Z,12.93
2018-04-09T18:19:23.081Z,16.87
2018-04-09T18:21:51.611Z,20.33
2018-04-09T18:24:20.647Z,15.83
2018-04-09T18:26:48.920Z,18.50
2018-04-09T18:29:17.182Z,16.63
2018-04-09T18:31:45.465Z,13.03
2018-04-09T18:34:13.721Z,16.60
2018-04-09T18:36:42.063Z,14.60
2018-04-09T18:39:10.336Z,15.83
2018-04-09T18:41:38.616Z,17.77
2018-04-09T18:44:06.897Z,16.03
2018-04-09T18:46:35.208Z,13.03
2018-04-09T18:49:03.496Z,19.87
2018-04-09T18:51:31.772Z,14.73
2018-04-09T18:54:00.115Z,18.13
2018-04-09T18:56:29.154Z,18.63
2018-04-09T18:58:57.459Z,11.67
2018-04-09T19:01:26.513Z,14.43
2018-04-09T19:03:54.852Z,14.57
2018-04-09T19:06:24.121Z,17.13
2018-04-09T19:08:52.395Z,14.47
2018-04-09T19:11:20.700Z,16.23
2018-04-09T19:13:48.995Z,17.23
2018-04-09T19:16:17.287Z,16.43
2018-04-09T19:18:45.560Z,13.90
2018-04-09T19:21:13.857Z,20.97
2018-04-09T19:23:42.163Z,19.17
2018-04-09T19:26:10.479Z,17.60
2018-04-09T19:28:39.530Z,15.17
2018-04-09T19:31:08.089Z,20.87
2018-04-09T19:33:37.192Z,17.13
2018-04-09T19:36:11.195Z,15.50
2018-04-09T19:38:45.152Z,13.57
2018-04-09T19:41:31.357Z,18.53
2018-04-09T19:44:00.416Z,20.93
2018-04-09T19:46:28.698Z,16.87
2018-04-09T19:48:57.075Z,19.10
2018-04-09T19:51:25.340Z,18.30
2018-04-09T19:53:53.639Z,24.03
2018-04-09T19:56:21.915Z,19.97
2018-04-09T19:58:50.185Z,29.00
2018-04-09T20:01:18.461Z,24.80
2018-04-09T20:03:46.743Z,27.37
2018-04-09T20:06:15.057Z,32.83
2018-04-09T20:08:43.484Z,28.47
2018-04-09T20:11:11.757Z,28.70
2018-04-09T20:13:40.084Z,26.97
2018-04-09T20:16:08.379Z,26.50
2018-04-09T20:18:36.672Z,23.17
2018-04-09T20:21:04.967Z,28.50
2018-04-09T20:23:33.228Z,21.37
2018-04-09T20:26:01.666Z,29.20
2018-04-09T20:28:30.719Z,23.50
2018-04-09T20:30:58.987Z,17.43
2018-04-09T20:33:27.264Z,20.73
2018-04-09T20:35:55.545Z,16.70
2018-04-09T20:38:23.822Z,16.60
2018-04-09T20:40:52.095Z,23.93
2018-04-09T20:43:20.371Z,25.37
2018-04-09T20:45:48.644Z,17.60
2018-04-09T20:48:16.917Z,31.53
2018-04-09T20:50:45.197Z,25.30
2018-04-09T20:53:13.472Z,21.50
2018-04-09T20:55:41.765Z,27.30
2018-04-09T20:58:11.098Z,33.67
2018-04-09T21:00:40.149Z,21.97
2018-04-09T21:03:08.407Z,47.40
2018-04-09T21:05:36.687Z,23.00
2018-04-09T21:08:04.961Z,35.57
2018-04-09T21:10:33.242Z,53.23
2018-04-09T21:13:01.507Z,48.47
2018-04-09T21:15:29.861Z,44.60
2018-04-09T21:17:58.183Z,35.33
2018-04-09T21:20:26.646Z,36.83
2018-04-09T21:22:54.944Z,33.10
2018-04-09T21:25:23.991Z,29.63
2018-04-09T21:27:52.259Z,34.80
2018-04-09T21:30:20.553Z,32.80
2018-04-09T21:32:48.831Z,24.23
2018-04-09T21:35:17.126Z,40.30
2018-04-09T21:37:45.392Z,34.00
2018-04-09T21:40:13.676Z,35.47
2018-04-09T21:42:41.959Z,40.87
2018-04-09T21:45:10.240Z,34.17
2018-04-09T21:47:38.601Z,30.43
2018-04-09T21:50:06.933Z,22.77
2018-04-09T21:52:36.124Z,21.20
2018-04-09T21:55:04.410Z,19.80
2018-04-09T21:57:33.438Z,20.97
2018-04-09T22:00:01.732Z,20.13
2018-04-09T22:02:30.055Z,20.03
2018-04-09T22:04:59.134Z,23.23
2018-04-09T22:07:27.398Z,27.87
2018-04-09T22:09:55.661Z,27.60
2018-04-09T22:12:23.959Z,21.93
2018-04-09T22:14:52.231Z,26.03
2018-04-09T22:17:20.591Z,25.53
2018-04-09T22:19:48.883Z,20.43
2018-04-09T22:22:17.917Z,25.17
2018-04-09T22:24:46.291Z,19.00
2018-04-09T22:27:15.344Z,18.07
2018-04-09T22:29:43.620Z,24.57
2018-04-09T22:32:11.964Z,16.83
2018-04-09T22:34:40.262Z,20.07
2018-04-09T22:37:08.634Z,20.90
2018-04-09T22:39:36.950Z,22.73
2018-04-09T22:42:05.224Z,29.70
2018-04-09T22:44:33.510Z,25.97
2018-04-09T22:47:02.571Z,16.83
2018-04-09T22:49:30.851Z,22.07
2018-04-09T22:51:59.221Z,17.97
2018-04-09T22:54:27.493Z,23.10
2018-04-09T22:56:55.767Z,22.93
2018-04-09T22:59:24.048Z,18.50
2018-04-09T23:01:52.312Z,16.27
2018-04-09T23:04:20.578Z,17.13
2018-04-09T23:06:48.844Z,26.13
2018-04-09T23:09:17.129Z,18.13
2018-04-09T23:11:45.396Z,17.00
2018-04-09T23:14:13.656Z,14.63
2018-04-09T23:16:42.736Z,15.63
2018-04-09T23:19:11.803Z,20.27
2018-04-09T23:21:40.085Z,17.10
2018-04-09T23:24:08.383Z,11.87
2018-04-09T23:26:36.641Z,17.10
2018-04-09T23:29:04.951Z,14.83
2018-04-09T23:31:33.975Z,14.07
2018-04-09T23:34:02.231Z,14.63
2018-04-09T23:36:30.495Z,18.97
2018-04-09T23:38:59.560Z,17.63
2018-04-09T23:41:27.836Z,19.33
2018-04-09T23:43:56.116Z,17.60
2018-04-09T23:46:24.368Z,23.83
2018-04-09T23:48:52.645Z,16.50
2018-04-09T23:51:20.930Z,31.73
2018-04-09T23:53:49.197Z,19.73
2018-04-09T23:56:17.472Z,17.93
2018-04-09T23:58:45.737Z,26.70
